Time;durP1;ratioP1;P1;durP2;ratioP2;P2;SDS_P1;SDS_P2;PMS_P1;PMS_P2;Temp;Humidity;BMP_temperature;BMP_pressure;BME280_temperature;BME280_humidity;BME280_pressure;Samples;Min_cycle;Max_cycle;Signal;HPM_P1;HPM_P2
2021/03/25 00:00:10;;;;;;;27.70;14.15;;;7.80;99.90;;;;;;5078056;28;20386;-79
2021/03/25 00:02:37;;;;;;;22.70;14.07;;;7.80;99.90;;;;;;5071546;28;20239;-79
2021/03/25 00:05:05;;;;;;;25.55;12.77;;;7.80;99.90;;;;;;5078823;28;20200;-81
2021/03/25 00:07:31;;;;;;;23.48;13.00;;;7.80;99.90;;;;;;5078406;28;20198;-80
2021/03/25 00:09:59;;;;;;;18.88;13.55;;;7.70;99.90;;;;;;5076608;28;20207;-79
2021/03/25 00:12:25;;;;;;;20.52;13.05;;;7.80;99.90;;;;;;5077834;28;20206;-79
2021/03/25 00:14:52;;;;;;;21.80;14.55;;;7.80;99.90;;;;;;5073680;28;20234;-81
2021/03/25 00:17:18;;;;;;;24.35;14.43;;;7.80;99.90;;;;;;5077070;28;20294;-79
2021/03/25 00:19:45;;;;;;;19.55;12.27;;;7.70;99.90;;;;;;5074833;28;20286;-80
2021/03/25 00:22:11;;;;;;;19.13;12.52;;;7.70;99.90;;;;;;5078802;28;20204;-79
2021/03/25 00:24:38;;;;;;;19.02;12.52;;;7.70;99.90;;;;;;5073774;28;20660;-82
2021/03/25 00:27:07;;;;;;;18.60;12.40;;;7.60;99.90;;;;;;5075586;28;20204;-80
2021/03/25 00:29:33;;;;;;;20.00;12.07;;;7.60;99.90;;;;;;5077133;28;20310;-79
2021/03/25 00:32:00;;;;;;;19.90;12.15;;;7.50;99.90;;;;;;5079883;28;20287;-79
2021/03/25 00:34:26;;;;;;;20.13;12.10;;;7.50;99.90;;;;;;5083468;28;20223;-82
2021/03/25 00:36:52;;;;;;;18.98;12.23;;;7.40;99.90;;;;;;5074903;28;20600;-79
2021/03/25 00:39:19;;;;;;;24.55;14.57;;;7.40;99.90;;;;;;5074925;28;20203;-80
2021/03/25 00:41:45;;;;;;;26.05;14.68;;;7.40;99.90;;;;;;5076574;28;20200;-78
2021/03/25 00:44:14;;;;;;;23.55;15.02;;;7.40;99.90;;;;;;5079575;28;20193;-79
2021/03/25 00:46:41;;;;;;;23.27;13.73;;;7.40;99.90;;;;;;5082121;28;20925;-80
2021/03/25 00:49:08;;;;;;;24.45;14.45;;;7.40;99.90;;;;;;5077785;28;20227;-80
2021/03/25 00:51:34;;;;;;;22.30;15.10;;;7.40;99.90;;;;;;5079071;28;20196;-79
2021/03/25 00:54:01;;;;;;;21.70;16.10;;;7.40;99.90;;;;;;5078467;28;20826;-78
2021/03/25 00:56:27;;;;;;;22.98;15.23;;;7.40;99.90;;;;;;5076637;28;20399;-80
2021/03/25 00:58:54;;;;;;;24.40;15.00;;;7.40;99.90;;;;;;5085007;28;20715;-79
2021/03/25 01:01:22;;;;;;;22.98;14.75;;;7.40;99.90;;;;;;5082424;28;20228;-78
2021/03/25 01:03:48;;;;;;;23.65;13.20;;;7.40;99.90;;;;;;5076131;28;20234;-81
2021/03/25 01:06:14;;;;;;;22.02;14.45;;;7.30;99.90;;;;;;5076027;28;20196;-80
2021/03/25 01:08:41;;;;;;;19.75;12.07;;;7.30;99.90;;;;;;5079028;28;20294;-79
2021/03/25 01:11:10;;;;;;;21.10;14.40;;;7.30;99.90;;;;;;5084340;28;20200;-80
2021/03/25 01:13:38;;;;;;;19.75;11.68;;;7.20;99.90;;;;;;5074925;28;20230;-78
2021/03/25 01:16:08;;;;;;;20.35;11.65;;;7.20;99.90;;;;;;5080605;28;20617;-79
2021/03/25 01:18:35;;;;;;;22.52;12.98;;;7.10;99.90;;;;;;5082011;28;20689;-79
2021/03/25 01:21:02;;;;;;;25.15;13.73;;;7.10;99.90;;;;;;5080396;28;20652;-80
2021/03/25 01:23:28;;;;;;;19.65;13.00;;;7.10;99.90;;;;;;5082108;28;20195;-80
2021/03/25 01:25:55;;;;;;;18.40;13.18;;;7.20;99.90;;;;;;5080682;28;20214;-81
2021/03/25 01:28:21;;;;;;;19.38;13.25;;;7.20;99.90;;;;;;5080939;28;20311;-79
2021/03/25 01:30:48;;;;;;;23.70;14.90;;;7.20;99.90;;;;;;5082243;28;20278;-80
2021/03/25 01:33:18;;;;;;;24.77;14.75;;;7.20;99.90;;;;;;5080391;28;20920;-79
2021/03/25 01:35:45;;;;;;;23.88;15.15;;;7.30;99.90;;;;;;5077827;28;20201;-78
2021/03/25 01:38:16;;;;;;;22.80;13.75;;;7.30;99.90;;;;;;5081490;28;20283;-78
2021/03/25 01:40:45;;;;;;;20.80;13.32;;;7.30;99.90;;;;;;5079533;28;21013;-79
2021/03/25 01:43:20;;;;;;;19.10;13.18;;;7.30;99.90;;;;;;5081742;28;20678;-79
2021/03/25 01:46:07;;;;;;;18.17;12.95;;;7.30;99.90;;;;;;5080960;28;20194;-80
2021/03/25 01:48:37;;;;;;;19.58;12.55;;;7.20;99.90;;;;;;5078874;28;20279;-80
2021/03/25 01:51:09;;;;;;;19.70;13.27;;;7.20;99.90;;;;;;5082058;28;20200;-79
2021/03/25 01:53:47;;;;;;;21.70;11.55;;;7.20;99.90;;;;;;5079557;28;20213;-78
2021/03/25 01:56:33;;;;;;;14.70;10.30;;;7.20;99.90;;;;;;5081727;28;21015;-77
2021/03/25 01:59:36;;;;;;;12.80;9.43;;;7.10;99.90;;;;;;5081284;28;20287;-80
2021/03/25 02:02:09;;;;;;;15.38;10.68;;;7.10;99.90;;;;;;5080654;28;20228;-80
2021/03/25 02:04:47;;;;;;;13.10;8.98;;;7.10;99.90;;;;;;5077284;28;20291;-79
2021/03/25 02:07:23;;;;;;;16.40;10.70;;;7.10;99.90;;;;;;5079247;28;20955;-80
2021/03/25 02:09:56;;;;;;;23.50;13.15;;;7.10;99.90;;;;;;5078023;28;20290;-79
2021/03/25 02:12:30;;;;;;;22.77;14.43;;;7.20;99.90;;;;;;5077405;28;20265;-80
2021/03/25 02:15:03;;;;;;;23.83;14.27;;;7.20;99.90;;;;;;5080794;28;20782;-79
2021/03/25 02:17:35;;;;;;;22.77;14.10;;;7.30;99.90;;;;;;5073279;28;20203;-78
2021/03/25 02:20:46;;;;;;;19.42;14.23;;;7.30;99.90;;;;;;5071532;28;20196;-78
2021/03/25 02:23:45;;;;;;;25.50;13.32;;;7.30;99.90;;;;;;5050589;28;20783;-81
2021/03/25 02:26:15;;;;;;;23.02;13.70;;;7.20;99.90;;;;;;5044734;28;20566;-79
2021/03/25 02:29:04;;;;;;;29.83;16.15;;;7.10;99.90;;;;;;5079705;28;20555;-80
2021/03/25 02:31:35;;;;;;;20.95;12.77;;;7.10;99.90;;;;;;5076037;28;20215;-80
2021/03/25 02:34:07;;;;;;;20.20;13.80;;;7.00;99.90;;;;;;5082261;28;20221;-79
2021/03/25 02:36:41;;;;;;;23.65;15.13;;;7.00;99.90;;;;;;5080169;28;20196;-79
2021/03/25 02:39:12;;;;;;;26.85;15.52;;;7.00;99.90;;;;;;5076703;28;20234;-80
2021/03/25 02:41:44;;;;;;;29.15;17.55;;;7.10;99.90;;;;;;5076704;28;20284;-81
2021/03/25 02:44:13;;;;;;;32.60;19.13;;;7.20;99.90;;;;;;5081020;28;20198;-78
2021/03/25 02:46:44;;;;;;;41.13;18.80;;;7.30;99.90;;;;;;5081555;28;20722;-79
2021/03/25 02:49:14;;;;;;;29.73;18.33;;;7.40;99.90;;;;;;5074468;28;20632;-81
2021/03/25 02:51:47;;;;;;;20.50;13.00;;;7.40;99.90;;;;;;5080015;28;20207;-79
2021/03/25 02:54:14;;;;;;;18.98;10.90;;;7.40;99.90;;;;;;5075844;28;20226;-81
2021/03/25 02:56:46;;;;;;;21.58;14.15;;;7.30;99.90;;;;;;5076368;28;20231;-79
2021/03/25 02:59:16;;;;;;;24.95;16.58;;;7.20;99.90;;;;;;5080118;28;20211;-79
2021/03/25 03:01:50;;;;;;;27.60;16.70;;;7.10;99.90;;;;;;5081826;28;21471;-81
2021/03/25 03:04:21;;;;;;;26.23;17.42;;;7.10;99.90;;;;;;5079858;28;20196;-81
2021/03/25 03:06:53;;;;;;;24.85;17.80;;;7.10;99.90;;;;;;5077194;28;20204;-78
2021/03/25 03:09:26;;;;;;;30.80;19.05;;;7.10;99.90;;;;;;5073662;28;20192;-80
2021/03/25 03:11:57;;;;;;;31.45;19.98;;;7.10;99.90;;;;;;5077315;28;20282;-80
2021/03/25 03:14:31;;;;;;;31.67;18.65;;;7.10;99.90;;;;;;5077400;28;20223;-81
2021/03/25 03:17:05;;;;;;;33.88;18.85;;;7.10;99.90;;;;;;5075969;28;20275;-79
2021/03/25 03:19:33;;;;;;;32.10;18.80;;;7.20;99.90;;;;;;5075627;28;20192;-80
2021/03/25 03:22:03;;;;;;;30.70;18.38;;;7.20;99.90;;;;;;5072825;28;20193;-80
2021/03/25 03:24:31;;;;;;;37.70;20.63;;;7.20;99.90;;;;;;5079074;28;20638;-81
2021/03/25 03:27:00;;;;;;;40.22;19.80;;;7.20;99.90;;;;;;5078866;28;20238;-82
2021/03/25 03:29:29;;;;;;;35.53;21.38;;;7.20;99.90;;;;;;5079062;28;20246;-81
2021/03/25 03:32:04;;;;;;;30.35;19.77;;;7.20;99.90;;;;;;5077498;28;20218;-80
2021/03/25 03:34:35;;;;;;;29.50;18.30;;;7.30;99.90;;;;;;5077767;28;20675;-80
2021/03/25 03:37:06;;;;;;;29.73;18.38;;;7.30;99.90;;;;;;5075176;28;20252;-81
2021/03/25 03:39:34;;;;;;;28.33;20.13;;;7.30;99.90;;;;;;5076488;28;20262;-81
2021/03/25 03:42:09;;;;;;;33.70;20.55;;;7.30;99.90;;;;;;5079417;28;20678;-80
2021/03/25 03:44:40;;;;;;;37.22;21.23;;;7.30;99.90;;;;;;5077398;28;20191;-80
2021/03/25 03:47:09;;;;;;;37.75;20.98;;;7.30;99.90;;;;;;5085180;28;20282;-79
2021/03/25 03:49:41;;;;;;;35.17;20.20;;;7.30;99.90;;;;;;5077322;28;20655;-79
2021/03/25 03:52:12;;;;;;;35.00;18.30;;;7.30;99.90;;;;;;5075349;28;20493;-80
2021/03/25 03:54:39;;;;;;;36.53;20.40;;;7.30;99.90;;;;;;5075703;28;20371;-80
2021/03/25 03:57:14;;;;;;;40.05;21.55;;;7.30;99.90;;;;;;5073642;28;20246;-80
2021/03/25 03:59:48;;;;;;;35.80;21.30;;;7.30;99.90;;;;;;5078113;28;20629;-79
2021/03/25 04:02:24;;;;;;;38.40;19.90;;;7.40;99.90;;;;;;5082962;28;20266;-78
2021/03/25 04:04:55;;;;;;;44.25;22.58;;;7.40;99.90;;;;;;5078973;28;20210;-78
2021/03/25 04:07:28;;;;;;;39.58;21.63;;;7.40;99.90;;;;;;5076339;28;20202;-79
2021/03/25 04:10:03;;;;;;;41.53;23.30;;;7.50;99.90;;;;;;5078475;28;20751;-78
2021/03/25 04:12:33;;;;;;;32.13;20.55;;;7.50;99.90;;;;;;5078724;28;20202;-81
2021/03/25 04:15:05;;;;;;;26.38;17.38;;;7.50;99.90;;;;;;5073549;28;20225;-79
2021/03/25 04:17:38;;;;;;;27.92;17.50;;;7.40;99.90;;;;;;5074848;28;20624;-79
2021/03/25 04:20:09;;;;;;;27.52;17.17;;;7.40;99.90;;;;;;5080277;28;20197;-79
2021/03/25 04:22:41;;;;;;;31.92;17.73;;;7.40;99.90;;;;;;5077631;28;20217;-79
2021/03/25 04:25:15;;;;;;;24.98;16.40;;;7.40;99.90;;;;;;5073745;28;20283;-81
2021/03/25 04:27:46;;;;;;;28.38;16.45;;;7.40;99.90;;;;;;5071796;28;20198;-81
2021/03/25 04:30:17;;;;;;;26.73;17.45;;;7.30;99.90;;;;;;5077063;28;20251;-79
2021/03/25 04:32:48;;;;;;;27.73;16.63;;;7.30;99.90;;;;;;5079383;28;20287;-79
2021/03/25 04:35:14;;;;;;;32.55;16.83;;;7.20;99.90;;;;;;5073355;28;20228;-80
2021/03/25 04:37:42;;;;;;;42.63;20.45;;;7.20;99.90;;;;;;5073635;28;20231;-80
2021/03/25 04:40:11;;;;;;;39.45;18.23;;;7.30;99.90;;;;;;5077330;28;20706;-79
2021/03/25 04:42:41;;;;;;;33.65;21.63;;;7.30;99.90;;;;;;5072842;28;20227;-80
2021/03/25 04:45:15;;;;;;;28.88;20.30;;;7.30;99.90;;;;;;5077275;28;20464;-79
2021/03/25 04:47:47;;;;;;;33.58;20.35;;;7.30;99.90;;;;;;5074765;28;20198;-81
2021/03/25 04:50:19;;;;;;;31.17;20.10;;;7.30;99.90;;;;;;5082332;28;20287;-79
2021/03/25 04:52:46;;;;;;;38.40;22.13;;;7.20;99.90;;;;;;5074588;28;20200;-80
2021/03/25 04:55:19;;;;;;;35.17;22.08;;;7.20;99.90;;;;;;5075424;28;20312;-79
2021/03/25 04:57:51;;;;;;;42.58;23.70;;;7.20;99.90;;;;;;5078691;28;21132;-79
2021/03/25 05:00:23;;;;;;;40.63;25.85;;;7.20;99.90;;;;;;5072962;28;20215;-79
2021/03/25 05:02:50;;;;;;;44.55;27.15;;;7.30;99.90;;;;;;5079993;28;20228;-78
2021/03/25 05:05:21;;;;;;;46.88;25.63;;;7.30;99.90;;;;;;5076023;28;20196;-78
2021/03/25 05:07:51;;;;;;;41.78;25.55;;;7.30;99.90;;;;;;5075225;28;20334;-81
2021/03/25 05:10:24;;;;;;;44.40;27.40;;;7.30;99.90;;;;;;5073843;28;20236;-81
2021/03/25 05:12:51;;;;;;;43.53;24.48;;;7.30;99.90;;;;;;5069294;28;20245;-80
2021/03/25 05:15:20;;;;;;;37.92;23.35;;;7.20;99.90;;;;;;5077136;28;20746;-80
2021/03/25 05:17:57;;;;;;;38.45;22.00;;;7.20;99.90;;;;;;5079126;28;20192;-78
2021/03/25 05:20:33;;;;;;;42.13;24.38;;;7.20;99.90;;;;;;5079892;28;20647;-81
2021/03/25 05:23:08;;;;;;;38.15;23.77;;;7.20;99.90;;;;;;5076046;28;20223;-78
2021/03/25 05:25:41;;;;;;;41.50;25.70;;;7.20;99.90;;;;;;5074717;28;20192;-81
2021/03/25 05:28:14;;;;;;;44.67;25.13;;;7.20;99.90;;;;;;5077447;28;20207;-79
2021/03/25 05:30:44;;;;;;;44.50;24.67;;;7.20;99.90;;;;;;5075957;28;20768;-80
2021/03/25 05:33:16;;;;;;;47.78;27.38;;;7.20;99.90;;;;;;5075102;28;20291;-79
2021/03/25 05:35:49;;;;;;;49.67;29.75;;;7.20;99.90;;;;;;5077254;28;20307;-82
2021/03/25 05:38:18;;;;;;;48.25;28.88;;;7.20;99.90;;;;;;5077686;28;20307;-80
2021/03/25 05:40:49;;;;;;;53.05;30.17;;;7.20;99.90;;;;;;5080951;28;20283;-78
2021/03/25 05:43:46;;;;;;;54.72;33.88;;;7.20;99.90;;;;;;5080070;28;20198;-79
2021/03/25 05:46:24;;;;;;;57.88;33.92;;;7.20;99.90;;;;;;5079677;28;20608;-80
2021/03/25 05:49:04;;;;;;;54.35;31.05;;;7.20;99.90;;;;;;5082589;28;20196;-80
2021/03/25 05:51:38;;;;;;;55.58;30.25;;;7.30;99.90;;;;;;5082182;28;20191;-78
2021/03/25 05:54:39;;;;;;;56.83;34.10;;;7.30;99.90;;;;;;5082077;28;20572;-80
2021/03/25 05:57:22;;;;;;;56.90;33.42;;;7.30;99.90;;;;;;5074947;28;20310;-80
2021/03/25 05:59:55;;;;;;;58.90;31.88;;;7.30;99.90;;;;;;5078416;28;20192;-81
2021/03/25 06:02:27;;;;;;;58.42;35.33;;;7.30;99.90;;;;;;5082090;28;20792;-79
2021/03/25 06:04:54;;;;;;;59.45;32.58;;;7.40;99.90;;;;;;5077021;28;20206;-80
2021/03/25 06:08:06;;;;;;;65.70;33.97;;;7.40;99.90;;;;;;5078994;28;20216;-80
2021/03/25 06:10:48;;;;;;;61.50;35.15;;;7.40;99.90;;;;;;5080636;28;20219;-79
2021/03/25 06:13:32;;;;;;;65.35;34.10;;;7.50;99.90;;;;;;5080714;28;20233;-82
2021/03/25 06:16:16;;;;;;;57.30;35.08;;;7.50;99.90;;;;;;5077576;28;20284;-79
2021/03/25 06:18:59;;;;;;;54.55;32.40;;;7.60;99.90;;;;;;5074152;28;20196;-81
2021/03/25 06:21:36;;;;;;;63.10;38.30;;;7.60;99.90;;;;;;5078711;28;20192;-79
2021/03/25 06:24:35;;;;;;;65.60;38.10;;;7.70;99.90;;;;;;5077282;28;20196;-81
2021/03/25 06:27:13;;;;;;;53.50;33.08;;;7.70;99.90;;;;;;5076040;28;20654;-81
2021/03/25 06:29:46;;;;;;;52.50;33.20;;;7.80;99.90;;;;;;5077638;28;20220;-81
2021/03/25 06:32:17;;;;;;;52.53;34.65;;;7.90;99.90;;;;;;5080987;28;20196;-79
2021/03/25 06:34:50;;;;;;;59.15;35.80;;;8.00;99.90;;;;;;5079091;28;20546;-79
2021/03/25 06:37:19;;;;;;;64.00;36.38;;;8.00;99.90;;;;;;5069334;28;20278;-80
2021/03/25 06:39:53;;;;;;;61.63;35.30;;;8.10;99.90;;;;;;5080618;28;20670;-80
2021/03/25 06:42:25;;;;;;;64.78;35.03;;;8.20;99.90;;;;;;5077170;28;20211;-79
2021/03/25 06:44:58;;;;;;;57.10;36.63;;;8.30;99.90;;;;;;5073878;28;20280;-79
2021/03/25 06:47:47;;;;;;;68.00;36.35;;;8.30;99.90;;;;;;5078748;28;20316;-81
2021/03/25 06:50:17;;;;;;;64.45;36.63;;;8.40;99.90;;;;;;5078776;28;20212;-81
2021/03/25 06:52:46;;;;;;;69.32;37.55;;;8.50;99.90;;;;;;5077578;28;20308;-80
2021/03/25 06:55:17;;;;;;;55.72;34.88;;;8.50;99.90;;;;;;5068583;28;20225;-79
2021/03/25 06:57:51;;;;;;;67.95;36.58;;;8.60;99.90;;;;;;5078419;28;20196;-80
2021/03/25 07:00:20;;;;;;;54.90;35.72;;;8.60;99.90;;;;;;5075138;28;20687;-79
2021/03/25 07:02:48;;;;;;;60.72;36.30;;;8.70;99.90;;;;;;5077617;28;20230;-80
2021/03/25 07:05:21;;;;;;;56.47;36.35;;;8.80;99.90;;;;;;5074825;28;20262;-81
2021/03/25 07:07:54;;;;;;;56.67;36.40;;;8.90;99.90;;;;;;5079652;28;20202;-79
2021/03/25 07:10:21;;;;;;;64.95;37.92;;;9.00;99.90;;;;;;5076389;28;20196;-83
2021/03/25 07:12:49;;;;;;;69.80;39.60;;;9.10;99.90;;;;;;5079590;28;20214;-80
2021/03/25 07:15:22;;;;;;;71.30;38.80;;;9.20;99.90;;;;;;5074800;28;20240;-83
2021/03/25 07:17:50;;;;;;;65.72;38.03;;;9.30;99.90;;;;;;5077151;28;20199;-80
2021/03/25 07:20:22;;;;;;;61.22;37.03;;;9.40;99.90;;;;;;5077857;28;20198;-80
2021/03/25 07:23:05;;;;;;;62.67;39.15;;;9.50;99.90;;;;;;5075437;28;20202;-80
2021/03/25 07:25:33;;;;;;;63.15;36.78;;;9.50;99.90;;;;;;5078188;28;20549;-80
2021/03/25 07:28:00;;;;;;;63.20;36.65;;;9.70;99.90;;;;;;5079259;28;20256;-79
2021/03/25 07:30:38;;;;;;;72.32;42.35;;;9.70;99.90;;;;;;5068835;28;20338;-80
2021/03/25 07:33:09;;;;;;;55.60;35.50;;;9.80;99.90;;;;;;5072346;28;20221;-79
2021/03/25 07:35:38;;;;;;;57.55;36.53;;;9.90;99.90;;;;;;5073002;28;20624;-78
2021/03/25 07:38:32;;;;;;;54.55;35.08;;;9.90;99.90;;;;;;5073488;28;20240;-81
2021/03/25 07:41:18;;;;;;;56.35;37.80;;;10.00;99.90;;;;;;5074788;28;20192;-81
2021/03/25 07:43:54;;;;;;;57.70;36.15;;;10.10;99.90;;;;;;5078082;28;20289;-81
2021/03/25 07:46:24;;;;;;;58.97;37.03;;;10.10;99.90;;;;;;5077599;28;20709;-80
2021/03/25 07:49:00;;;;;;;61.38;35.45;;;10.20;99.90;;;;;;5072441;28;21063;-80
2021/03/25 07:51:27;;;;;;;60.85;33.97;;;10.20;99.90;;;;;;5073779;28;20203;-81
2021/03/25 07:54:11;;;;;;;55.25;37.10;;;10.30;99.90;;;;;;5073678;28;20228;-81
2021/03/25 07:56:53;;;;;;;60.13;36.60;;;10.40;99.90;;;;;;5071083;28;20285;-81
2021/03/25 07:59:33;;;;;;;61.13;36.70;;;10.40;99.90;;;;;;5072417;28;20301;-82
2021/03/25 08:02:00;;;;;;;63.50;37.85;;;10.50;99.90;;;;;;5072159;28;20356;-81
2021/03/25 08:04:28;;;;;;;58.92;39.10;;;10.60;99.90;;;;;;5076331;28;20196;-83
2021/03/25 08:07:06;;;;;;;63.45;38.53;;;10.70;99.90;;;;;;5074725;28;20238;-80
2021/03/25 08:09:45;;;;;;;59.58;39.33;;;10.80;99.90;;;;;;5073945;28;20735;-80
2021/03/25 08:12:31;;;;;;;64.82;39.60;;;10.90;99.90;;;;;;5072530;28;20222;-79
2021/03/25 08:15:22;;;;;;;60.22;39.22;;;;;;;;;;5075476;28;20216;-82
2021/03/25 08:18:07;;;;;;;61.83;37.13;;;11.10;99.90;;;;;;5047891;28;20257;-81
2021/03/25 08:20:39;;;;;;;70.97;39.67;;;11.20;99.90;;;;;;5070277;28;20235;-80
2021/03/25 08:23:54;;;;;;;71.85;41.22;;;11.30;99.90;;;;;;5075238;28;20199;-81
2021/03/25 08:26:27;;;;;;;59.28;40.85;;;11.30;99.90;;;;;;5008525;28;20205;-80
2021/03/25 08:29:04;;;;;;;65.20;40.25;;;11.40;99.90;;;;;;5059045;28;20232;-82
2021/03/25 08:31:35;;;;;;;71.55;39.53;;;11.40;99.90;;;;;;5076399;28;20222;-81
2021/03/25 08:34:13;;;;;;;65.20;40.15;;;11.50;99.90;;;;;;5075163;28;20304;-80
2021/03/25 08:36:57;;;;;;;63.33;40.50;;;11.50;99.90;;;;;;5069536;28;20283;-80
2021/03/25 08:39:38;;;;;;;60.30;39.60;;;11.60;99.90;;;;;;5069969;28;20211;-79
2021/03/25 08:42:16;;;;;;;77.28;41.13;;;11.50;99.90;;;;;;5068552;28;20467;-79
2021/03/25 08:44:47;;;;;;;68.37;39.30;;;11.60;99.90;;;;;;5079355;28;20283;-80
2021/03/25 08:47:18;;;;;;;62.23;38.50;;;11.70;99.90;;;;;;5077058;28;20457;-82
2021/03/25 08:49:56;;;;;;;72.32;41.58;;;11.70;99.90;;;;;;5070741;28;20458;-80
2021/03/25 08:52:25;;;;;;;59.13;38.53;;;11.70;99.90;;;;;;5076805;28;20257;-79
2021/03/25 08:55:02;;;;;;;60.70;39.33;;;11.80;99.90;;;;;;5072768;28;20312;-80
2021/03/25 08:57:32;;;;;;;80.18;37.90;;;11.90;99.90;;;;;;5071488;28;20461;-79
2021/03/25 09:00:05;;;;;;;66.47;38.33;;;11.90;99.90;;;;;;5077261;28;20563;-80
2021/03/25 09:02:36;;;;;;;67.15;38.38;;;11.90;99.90;;;;;;5069560;28;20498;-81
2021/03/25 09:05:09;;;;;;;61.23;36.97;;;12.00;99.90;;;;;;5066833;28;20201;-79
2021/03/25 09:07:37;;;;;;;72.93;36.43;;;12.00;99.90;;;;;;5074343;28;20554;-80
2021/03/25 09:10:07;;;;;;;60.13;35.60;;;12.00;99.90;;;;;;5077503;28;20494;-80
2021/03/25 09:12:35;;;;;;;52.97;36.10;;;12.10;99.90;;;;;;5073457;28;20891;-79
2021/03/25 09:15:04;;;;;;;61.57;36.60;;;12.10;99.90;;;;;;5074568;28;20496;-79
2021/03/25 09:17:38;;;;;;;58.77;37.27;;;12.10;99.90;;;;;;5078598;28;20472;-80
2021/03/25 09:20:10;;;;;;;69.37;36.93;;;12.10;99.90;;;;;;5073643;28;20592;-77
2021/03/25 09:22:46;;;;;;;62.80;38.33;;;12.20;99.90;;;;;;5074331;28;20554;-78
2021/03/25 09:25:39;;;;;;;57.70;35.80;;;12.20;99.90;;;;;;5075471;28;20458;-78
2021/03/25 09:28:18;;;;;;;62.83;36.60;;;12.30;99.90;;;;;;5073687;28;20462;-82
2021/03/25 09:31:05;;;;;;;56.87;32.80;;;12.40;99.90;;;;;;5073959;28;20551;-79
2021/03/25 09:33:40;;;;;;;53.93;32.03;;;12.50;99.90;;;;;;5073961;28;20491;-80
2021/03/25 09:36:51;;;;;;;50.93;32.07;;;12.70;99.90;;;;;;5073684;28;20578;-78
2021/03/25 09:39:28;;;;;;;52.80;31.70;;;12.80;99.90;;;;;;5069677;28;20455;-82
2021/03/25 09:41:58;;;;;;;51.63;29.60;;;12.90;99.90;;;;;;5078076;28;20442;-79
2021/03/25 09:44:32;;;;;;;45.10;29.33;;;13.00;99.90;;;;;;5077826;28;20805;-81
2021/03/25 09:47:18;;;;;;;47.30;31.70;;;13.10;99.90;;;;;;5082547;28;20466;-79
2021/03/25 09:49:47;;;;;;;49.90;31.33;;;13.20;99.90;;;;;;5082324;28;20891;-80
2021/03/25 09:52:36;;;;;;;51.43;30.57;;;13.20;99.90;;;;;;5077464;28;20455;-80
2021/03/25 09:55:16;;;;;;;45.97;29.30;;;13.30;99.90;;;;;;5078445;28;20539;-84
2021/03/25 09:57:44;;;;;;;44.53;28.27;;;13.30;99.90;;;;;;5074715;28;20460;-80
2021/03/25 10:00:33;;;;;;;46.83;27.90;;;13.40;99.90;;;;;;5084717;28;20460;-78
2021/03/25 10:03:01;;;;;;;39.90;27.53;;;13.50;99.90;;;;;;5072857;28;20495;-80
2021/03/25 10:05:39;;;;;;;36.90;24.97;;;13.50;99.90;;;;;;5079940;28;20857;-80
2021/03/25 10:08:39;;;;;;;46.87;26.90;;;13.60;99.90;;;;;;5072631;28;20562;-82
2021/03/25 10:11:43;;;;;;;42.93;25.87;;;13.60;99.90;;;;;;5074521;28;20474;-78
2021/03/25 10:14:46;;;;;;;37.77;23.37;;;13.70;99.90;;;;;;5075124;28;20505;-79
2021/03/25 10:17:45;;;;;;;43.37;24.33;;;13.80;99.90;;;;;;5080818;28;20458;-79
2021/03/25 10:20:29;;;;;;;41.23;24.67;;;13.80;99.90;;;;;;5078382;28;20453;-80
2021/03/25 10:22:56;;;;;;;37.60;24.40;;;13.80;99.90;;;;;;5073236;28;21029;-82
2021/03/25 10:25:27;;;;;;;39.37;24.70;;;13.80;99.90;;;;;;5080549;28;20520;-80
2021/03/25 10:27:58;;;;;;;38.40;24.73;;;13.80;99.90;;;;;;5081941;28;20458;-82
2021/03/25 10:30:29;;;;;;;44.30;25.83;;;13.80;99.90;;;;;;5081694;28;20577;-78
2021/03/25 10:32:58;;;;;;;36.47;23.23;;;13.90;99.90;;;;;;5076811;28;20568;-79
2021/03/25 10:35:32;;;;;;;41.17;22.20;;;13.90;99.90;;;;;;5073801;28;20509;-83
2021/03/25 10:38:06;;;;;;;32.23;22.13;;;14.00;99.90;;;;;;5079156;28;20573;-80
2021/03/25 10:40:36;;;;;;;26.27;19.50;;;14.00;99.90;;;;;;5078435;28;20465;-84
2021/03/25 10:43:05;;;;;;;32.43;21.30;;;14.00;99.90;;;;;;5072760;28;20456;-84
2021/03/25 10:45:38;;;;;;;34.50;21.90;;;14.00;99.90;;;;;;5078755;28;20467;-82
2021/03/25 10:48:13;;;;;;;33.90;21.23;;;14.00;99.90;;;;;;5082541;28;20971;-80
2021/03/25 10:50:47;;;;;;;38.53;21.30;;;14.10;99.90;;;;;;5076928;28;21040;-81
2021/03/25 10:53:17;;;;;;;25.97;20.90;;;14.10;99.90;;;;;;5071602;28;20807;-82
2021/03/25 10:55:47;;;;;;;30.07;19.00;;;14.10;99.90;;;;;;5080386;28;20495;-81
2021/03/25 10:58:25;;;;;;;30.27;20.90;;;14.10;99.90;;;;;;5080180;28;21011;-79
2021/03/25 11:01:03;;;;;;;31.67;20.80;;;14.10;99.90;;;;;;5077981;28;21030;-83
2021/03/25 11:03:35;;;;;;;28.80;19.97;;;14.10;99.90;;;;;;5076809;28;20868;-80
2021/03/25 11:06:01;;;;;;;30.00;19.10;;;14.20;99.90;;;;;;5075591;28;21046;-80
2021/03/25 11:08:32;;;;;;;27.30;17.40;;;14.20;99.90;;;;;;5079402;28;20498;-84
2021/03/25 11:11:01;;;;;;;33.57;19.00;;;14.30;99.90;;;;;;5077723;28;20462;-84
2021/03/25 11:13:29;;;;;;;23.50;16.40;;;14.30;99.90;;;;;;5075544;28;20564;-80
2021/03/25 11:15:58;;;;;;;24.73;16.60;;;14.30;99.90;;;;;;5083621;28;21072;-81
2021/03/25 11:18:29;;;;;;;25.67;16.27;;;14.40;99.90;;;;;;5080107;28;20570;-80
2021/03/25 11:20:57;;;;;;;26.83;15.93;;;14.40;99.90;;;;;;5078285;28;20530;-82
2021/03/25 11:23:27;;;;;;;21.40;15.20;;;14.40;99.90;;;;;;5076446;28;21077;-80
2021/03/25 11:25:58;;;;;;;22.43;15.00;;;14.50;99.90;;;;;;5077582;28;20472;-82
2021/03/25 11:28:26;;;;;;;19.27;15.90;;;14.50;99.90;;;;;;5078365;28;21009;-82
2021/03/25 11:30:55;;;;;;;20.07;13.57;;;14.60;99.90;;;;;;5073826;28;20502;-80
2021/03/25 11:33:33;;;;;;;22.13;15.57;;;14.60;99.90;;;;;;5078500;28;20467;-81
2021/03/25 11:36:03;;;;;;;24.63;14.63;;;14.60;99.90;;;;;;5075342;28;21032;-81
2021/03/25 11:38:34;;;;;;;20.93;14.60;;;14.70;99.90;;;;;;5077947;28;20463;-83
2021/03/25 11:41:03;;;;;;;24.80;13.60;;;14.70;99.90;;;;;;5063371;28;20466;-83
2021/03/25 11:43:49;;;;;;;18.17;12.40;;;14.80;99.90;;;;;;5068679;28;20470;-79
2021/03/25 11:46:27;;;;;;;20.70;13.70;;;14.80;99.90;;;;;;5074281;28;20457;-80
2021/03/25 11:49:07;;;;;;;25.23;14.67;;;14.90;99.90;;;;;;5073543;28;20464;-80
2021/03/25 11:51:37;;;;;;;33.13;18.73;;;14.90;99.90;;;;;;5075846;28;20555;-80
2021/03/25 11:54:28;;;;;;;21.20;13.87;;;14.90;99.90;;;;;;5074167;28;20540;-80
2021/03/25 11:56:56;;;;;;;19.40;14.50;;;15.00;99.90;;;;;;5070947;28;20469;-80
2021/03/25 11:59:27;;;;;;;17.00;12.50;;;15.00;99.90;;;;;;5077890;28;21084;-81
2021/03/25 12:02:29;;;;;;;20.13;13.93;;;14.90;99.90;;;;;;5075147;28;20514;-85
2021/03/25 12:04:56;;;;;;;19.40;14.23;;;14.90;99.90;;;;;;5071391;28;20456;-80
2021/03/25 12:07:26;;;;;;;21.87;13.73;;;14.90;99.90;;;;;;5070599;28;20968;-80
2021/03/25 12:10:17;;;;;;;23.67;14.30;;;15.00;99.90;;;;;;5076424;28;20458;-80
2021/03/25 12:12:44;;;;;;;21.63;14.20;;;15.00;99.90;;;;;;5078158;28;20456;-80
2021/03/25 12:15:12;;;;;;;18.13;13.60;;;15.00;99.90;;;;;;5074246;28;21012;-82
2021/03/25 12:17:43;;;;;;;16.33;11.93;;;15.00;99.90;;;;;;5069906;28;20550;-81
2021/03/25 12:20:18;;;;;;;19.67;14.23;;;15.00;99.90;;;;;;5074892;28;20547;-83
2021/03/25 12:22:45;;;;;;;21.50;12.90;;;15.00;99.90;;;;;;5072782;28;20553;-83
2021/03/25 12:25:34;;;;;;;14.30;11.80;;;15.00;99.90;;;;;;5074218;28;20515;-81
2021/03/25 12:28:00;;;;;;;16.60;11.20;;;15.10;99.90;;;;;;5079543;28;20535;-80
2021/03/25 12:30:27;;;;;;;19.83;12.90;;;15.10;99.90;;;;;;5078527;28;20484;-84
2021/03/25 12:32:53;;;;;;;19.50;11.57;;;15.20;99.90;;;;;;5078854;28;21570;-84
2021/03/25 12:35:22;;;;;;;18.40;11.90;;;15.30;99.90;;;;;;5074866;28;20491;-80
2021/03/25 12:37:50;;;;;;;15.57;12.77;;;15.50;99.90;;;;;;5072174;28;20944;-80
2021/03/25 12:40:21;;;;;;;23.70;13.20;;;15.50;99.90;;;;;;5074683;28;20469;-83
2021/03/25 12:42:48;;;;;;;15.00;12.33;;;15.60;99.90;;;;;;5072444;28;20552;-82
2021/03/25 12:45:25;;;;;;;17.40;12.50;;;15.70;99.90;;;;;;5073883;28;20589;-81
2021/03/25 12:47:52;;;;;;;17.40;13.50;;;15.90;99.90;;;;;;5071976;28;20828;-81
2021/03/25 12:50:19;;;;;;;18.10;15.00;;;16.00;99.90;;;;;;5079032;28;20524;-80
2021/03/25 12:52:45;;;;;;;18.60;14.83;;;16.10;99.90;;;;;;5080274;28;21144;-81
2021/03/25 12:55:14;;;;;;;21.30;15.47;;;16.20;99.90;;;;;;5077959;28;20481;-82
2021/03/25 12:57:40;;;;;;;20.43;14.23;;;16.30;99.90;;;;;;5073830;28;20458;-82
2021/03/25 13:00:09;;;;;;;16.87;15.03;;;16.30;99.90;;;;;;5075641;28;20521;-80
2021/03/25 13:02:36;;;;;;;23.47;19.83;;;16.30;99.90;;;;;;5075736;28;21037;-83
2021/03/25 13:05:04;;;;;;;24.40;21.70;;;16.20;99.90;;;;;;5078108;28;20518;-80